Time;durP1;ratioP1;P1;durP2;ratioP2;P2;SDS_P1;SDS_P2;PMS_P1;PMS_P2;Temp;Humidity;BMP_temperature;BMP_pressure;BME280_temperature;BME280_humidity;BME280_pressure;Samples;Min_cycle;Max_cycle;Signal;HPM_P1;HPM_P2
2022/05/18 00:00:48;;;;;;;12.80;8.82;;;;;;;16.17;72.83;96766.22;5111713;28;20055;-78
2022/05/18 00:03:18;;;;;;;13.27;9.27;;;;;;;16.16;73.06;96772.88;5110679;28;20071;-77
2022/05/18 00:05:45;;;;;;;12.65;9.10;;;;;;;16.13;73.13;96776.31;5109961;28;20082;-77
2022/05/18 00:08:13;;;;;;;11.68;8.35;;;;;;;16.13;73.54;96768.88;5108796;28;20047;-76
2022/05/18 00:10:42;;;;;;;11.68;8.20;;;;;;;16.17;73.91;96774.47;5109762;28;20046;-77
2022/05/18 00:13:09;;;;;;;12.68;8.57;;;;;;;16.16;73.74;96775.63;5109887;28;20050;-77
2022/05/18 00:15:38;;;;;;;12.85;9.10;;;;;;;16.15;74.10;96777.56;5110862;28;20054;-77
2022/05/18 00:18:05;;;;;;;12.63;8.07;;;;;;;16.16;74.31;96775.63;5113805;28;20046;-77
2022/05/18 00:20:34;;;;;;;12.50;8.85;;;;;;;16.13;74.20;96776.31;5114120;28;20605;-77
2022/05/18 00:23:02;;;;;;;10.93;8.38;;;;;;;16.13;74.61;96779.03;5114628;28;20510;-78
2022/05/18 00:25:32;;;;;;;12.85;8.85;;;;;;;16.15;74.00;96765.78;5114410;28;20036;-77
2022/05/18 00:27:59;;;;;;;12.98;8.70;;;;;;;16.10;74.33;96775.06;5115385;28;20054;-77
2022/05/18 00:30:27;;;;;;;12.88;9.25;;;;;;;16.11;74.13;96775.84;5115938;28;20043;-78
2022/05/18 00:32:54;;;;;;;11.75;8.40;;;;;;;16.07;73.41;96775.72;5116772;28;20585;-77
2022/05/18 00:35:22;;;;;;;11.93;8.73;;;;;;;16.09;73.08;96778.16;5114585;28;20048;-77
2022/05/18 00:37:50;;;;;;;11.23;8.48;;;;;;;16.05;73.01;96780.78;5116623;28;20055;-77
2022/05/18 00:40:19;;;;;;;17.92;9.13;;;;;;;15.98;73.77;96777.00;5127555;28;20040;-78
2022/05/18 00:42:46;;;;;;;15.30;8.38;;;;;;;15.96;74.09;96773.78;5123169;27;20047;-77
2022/05/18 00:45:13;;;;;;;13.68;8.52;;;;;;;15.94;73.76;96781.56;5122263;28;20039;-78
2022/05/18 00:47:40;;;;;;;11.80;8.80;;;;;;;15.91;73.76;96775.59;5122596;28;20043;-78
2022/05/18 00:50:10;;;;;;;10.77;8.77;;;;;;;15.89;73.56;96779.84;5114517;28;20047;-76
2022/05/18 00:52:40;;;;;;;13.38;8.80;;;;;;;15.87;73.56;96782.16;5113568;28;20043;-77
2022/05/18 00:55:10;;;;;;;15.88;8.57;;;;;;;15.84;73.27;96783.63;5113110;28;20126;-77
2022/05/18 00:57:45;;;;;;;12.10;8.23;;;;;;;15.78;72.75;96790.47;5113567;28;20044;-78
2022/05/18 01:00:15;;;;;;;9.95;7.20;;;;;;;15.62;73.40;96784.03;5112894;28;20514;-78
2022/05/18 01:02:47;;;;;;;11.02;7.80;;;;;;;15.56;73.32;96782.63;5113674;28;20036;-78
2022/05/18 01:05:20;;;;;;;10.52;8.23;;;;;;;15.53;73.23;96783.31;5113193;28;20048;-77
2022/05/18 01:07:50;;;;;;;12.50;8.88;;;;;;;15.49;73.51;96787.84;5113924;28;20053;-76
2022/05/18 01:10:18;;;;;;;11.27;8.40;;;;;;;15.44;74.09;96786.13;5113319;28;20039;-77
2022/05/18 01:12:46;;;;;;;12.80;8.23;;;;;;;15.43;74.40;96789.22;5116570;27;20046;-77
2022/05/18 01:15:19;;;;;;;11.13;8.95;;;;;;;15.38;74.79;96790.22;5112507;28;20662;-76
2022/05/18 01:17:49;;;;;;;13.23;8.90;;;;;;;15.40;74.81;96796.19;5113269;28;20050;-78
2022/05/18 01:20:20;;;;;;;12.00;8.80;;;;;;;15.39;74.89;96798.13;5112567;28;20074;-76
2022/05/18 01:22:59;;;;;;;10.68;8.45;;;;;;;15.38;75.17;96799.25;5113619;28;20051;-77
2022/05/18 01:25:41;;;;;;;10.63;8.27;;;;;;;15.39;75.15;96800.06;5112521;28;20505;-77
2022/05/18 01:28:10;;;;;;;11.48;8.60;;;;;;;15.38;74.94;96799.25;5111280;28;20051;-77
2022/05/18 01:30:42;;;;;;;11.13;8.70;;;;;;;15.35;75.28;96793.66;5112816;28;20084;-78
2022/05/18 01:33:09;;;;;;;16.20;9.90;;;;;;;15.33;75.37;96796.72;5112293;28;20498;-77
2022/05/18 01:35:40;;;;;;;12.07;9.38;;;;;;;15.33;75.45;96802.22;5112668;28;20043;-77
2022/05/18 01:38:12;;;;;;;12.35;9.13;;;;;;;15.30;75.71;96802.91;5112207;28;20070;-78
2022/05/18 01:40:45;;;;;;;12.50;9.77;;;;;;;15.30;76.28;96802.09;5112701;28;20040;-77
2022/05/18 01:43:18;;;;;;;13.98;8.98;;;;;;;15.30;76.72;96813.88;5112023;28;20043;-76
2022/05/18 01:45:50;;;;;;;14.32;9.75;;;;;;;15.29;76.41;96809.50;5113008;28;20043;-77
2022/05/18 01:48:18;;;;;;;12.48;9.05;;;;;;;15.30;76.18;96813.88;5114024;28;20119;-77
2022/05/18 01:50:45;;;;;;;13.18;9.10;;;;;;;15.30;75.48;96819.38;5116050;28;20430;-77
2022/05/18 01:53:12;;;;;;;16.60;10.10;;;;;;;15.29;75.30;96811.47;5115350;28;20051;-77
2022/05/18 01:55:38;;;;;;;15.75;9.60;;;;;;;15.25;75.55;96818.78;5115633;28;20126;-76
2022/05/18 01:58:06;;;;;;;13.98;9.77;;;;;;;15.22;75.97;96817.50;5114521;28;20047;-77
2022/05/18 02:00:35;;;;;;;14.50;10.18;;;;;;;15.19;76.08;96820.09;5112887;28;20043;-78
2022/05/18 02:03:02;;;;;;;14.07;9.40;;;;;;;15.17;76.65;96820.44;5111846;28;20051;-77
2022/05/18 02:05:29;;;;;;;14.32;9.88;;;;;;;15.15;76.87;96820.00;5111923;28;20043;-77
2022/05/18 02:07:57;;;;;;;14.02;9.35;;;;;;;15.15;76.71;96825.47;5112131;28;20048;-76
2022/05/18 02:10:23;;;;;;;12.20;9.00;;;;;;;15.15;76.20;96820.00;5111596;28;20093;-77
2022/05/18 02:12:50;;;;;;;15.48;10.27;;;;;;;15.16;75.90;96818.84;5111951;28;20052;-77
2022/05/18 02:15:16;;;;;;;13.05;9.38;;;;;;;15.14;75.67;96818.41;5111421;28;20060;-77
2022/05/18 02:17:44;;;;;;;12.45;9.82;;;;;;;15.10;76.27;96818.25;5111821;28;20036;-77
2022/05/18 02:20:13;;;;;;;15.20;9.68;;;;;;;15.10;76.81;96809.22;5111295;28;20043;-76
2022/05/18 02:22:39;;;;;;;14.25;10.13;;;;;;;15.07;77.01;96810.69;5111868;28;20043;-77
2022/05/18 02:25:06;;;;;;;12.85;10.07;;;;;;;15.06;77.06;96811.03;5111162;28;20054;-77
2022/05/18 02:27:33;;;;;;;15.27;10.73;;;;;;;15.03;76.88;96822.66;5111966;28;20051;-78
2022/05/18 02:30:00;;;;;;;14.32;9.73;;;;;;;15.02;77.17;96832.03;5111595;28;20198;-76
2022/05/18 02:32:27;;;;;;;12.48;9.65;;;;;;;15.04;76.51;96827.81;5111332;28;20042;-76
2022/05/18 02:34:55;;;;;;;13.57;9.43;;;;;;;15.04;75.62;96827.03;5111581;28;20423;-76
2022/05/18 02:37:21;;;;;;;13.88;10.15;;;;;;;14.99;75.68;96824.50;5111249;28;20046;-77
2022/05/18 02:39:48;;;;;;;14.52;9.77;;;;;;;14.98;76.11;96829.16;5111953;28;20043;-77
2022/05/18 02:42:14;;;;;;;13.73;9.23;;;;;;;14.98;75.40;96825.59;5121469;28;20056;-77
2022/05/18 02:44:41;;;;;;;16.20;10.05;;;;;;;14.95;75.52;96829.03;5119030;28;20483;-77
2022/05/18 02:47:08;;;;;;;14.70;9.63;;;;;;;14.88;75.76;96841.34;5111124;28;20048;-76
2022/05/18 02:49:34;;;;;;;15.30;9.40;;;;;;;14.88;76.05;96830.38;5111673;28;20418;-77
2022/05/18 02:52:02;;;;;;;14.75;9.20;;;;;;;14.90;75.64;96837.44;5111645;28;20040;-77
2022/05/18 02:57:13;;;;;;;14.88;9.75;;;;;;;14.82;75.07;96839.91;5110860;28;20051;-77
2022/05/18 02:59:41;;;;;;;13.13;9.82;;;;;;;14.78;75.27;96839.00;5111062;28;20043;-77
2022/05/18 03:02:08;;;;;;;15.20;10.30;;;;;;;14.72;75.81;96837.59;5110580;28;20047;-77
2022/05/18 03:04:34;;;;;;;16.23;9.95;;;;;;;14.66;76.02;96836.16;5111142;28;20035;-78
2022/05/18 03:07:02;;;;;;;15.70;9.85;;;;;;;14.63;76.24;96838.78;5111475;28;20043;-77
2022/05/18 03:09:29;;;;;;;15.65;10.73;;;;;;;14.59;76.36;96835.88;5111898;28;20039;-79
2022/05/18 03:11:56;;;;;;;17.27;10.40;;;;;;;14.55;76.43;96832.19;5111885;28;20477;-77
2022/05/18 03:14:23;;;;;;;19.13;10.50;;;;;;;14.55;76.55;96832.19;5111463;28;20101;-79
2022/05/18 03:16:50;;;;;;;13.52;10.15;;;;;;;14.56;76.74;96834.63;5111865;28;20055;-79
2022/05/18 03:19:17;;;;;;;14.38;10.50;;;;;;;14.56;76.55;96836.53;5110971;28;20509;-77
2022/05/18 03:24:29;;;;;;;13.82;9.82;;;;;;;14.55;76.76;96832.19;5110991;28;20050;-77
2022/05/18 03:26:56;;;;;;;18.40;11.00;;;;;;;14.58;76.93;96839.75;5111324;28;20039;-77
2022/05/18 03:29:22;;;;;;;16.30;10.93;;;;;;;14.62;77.45;96837.97;5110684;28;20561;-77
2022/05/18 03:31:49;;;;;;;15.18;10.52;;;;;;;14.63;77.39;96845.06;5113609;28;20048;-77
2022/05/18 03:34:16;;;;;;;13.15;10.20;;;;;;;14.65;77.35;96845.50;5113570;28;20039;-77
2022/05/18 03:36:43;;;;;;;19.73;10.15;;;;;;;14.69;77.06;96853.88;5116256;28;20040;-77
2022/05/18 03:39:10;;;;;;;13.38;10.07;;;;;;;14.70;76.37;96858.22;5115209;28;20054;-76
2022/05/18 03:41:39;;;;;;;14.88;10.40;;;;;;;14.70;75.96;96867.25;5100646;28;20040;-77
2022/05/18 03:44:07;;;;;;;13.90;9.65;;;;;;;14.70;75.55;96871.94;5097105;28;20052;-78
2022/05/18 03:46:35;;;;;;;15.82;10.90;;;;;;;14.69;75.21;96860.16;5098378;28;20410;-77
2022/05/18 03:49:03;;;;;;;18.52;10.77;;;;;;;14.70;75.89;96866.44;5113113;28;20056;-78
2022/05/18 03:51:30;;;;;;;16.33;10.65;;;;;;;14.63;75.82;96864.25;5115573;28;20063;-77
2022/05/18 03:53:57;;;;;;;14.30;10.45;;;;;;;14.64;75.86;96868.59;5117165;28;20051;-77
2022/05/18 03:56:24;;;;;;;17.17;10.48;;;;;;;14.66;76.13;96885.47;5117116;28;20386;-78
2022/05/18 03:58:52;;;;;;;13.75;9.98;;;;;;;14.65;76.16;96877.59;5117041;28;20047;-77
2022/05/18 04:01:19;;;;;;;16.48;10.55;;;;;;;14.63;75.96;96880.69;5115695;28;20048;-76
2022/05/18 04:03:46;;;;;;;17.17;10.88;;;;;;;14.67;76.04;96878.91;5115616;28;20077;-77
2022/05/18 04:06:14;;;;;;;14.63;10.30;;;;;;;14.69;75.83;96882.09;5114973;28;20051;-78
2022/05/18 04:08:41;;;;;;;18.63;10.98;;;;;;;14.67;75.76;96889.84;5115547;28;20046;-77
2022/05/18 04:11:08;;;;;;;12.85;9.65;;;;;;;14.68;75.69;96896.94;5115183;28;20406;-77
2022/05/18 04:13:35;;;;;;;18.52;11.20;;;;;;;14.69;75.38;96897.75;5116111;28;20036;-79
2022/05/18 04:16:05;;;;;;;14.13;10.25;;;;;;;14.69;75.70;96895.81;5114616;28;20051;-78
2022/05/18 04:18:34;;;;;;;12.55;10.38;;;;;;;14.75;75.86;96908.19;5114950;28;20563;-77
2022/05/18 04:21:02;;;;;;;17.20;11.55;;;;;;;14.77;75.69;96916.91;5115133;28;20086;-77
2022/05/18 04:23:29;;;;;;;19.17;11.43;;;;;;;14.75;75.52;96913.66;5114542;28;20119;-78
2022/05/18 04:25:56;;;;;;;15.95;11.20;;;;;;;14.76;75.45;96920.75;5115407;28;20128;-77
2022/05/18 04:28:22;;;;;;;18.48;10.60;;;;;;;14.80;75.13;96929.13;5114843;28;20039;-78
2022/05/18 04:30:50;;;;;;;14.23;10.55;;;;;;;14.81;75.47;96928.78;5115057;28;20410;-77
2022/05/18 04:33:20;;;;;;;14.63;10.48;;;;;;;14.83;75.73;96932.00;5114614;28;20047;-77
2022/05/18 04:35:48;;;;;;;17.70;11.20;;;;;;;14.87;75.51;96935.69;5114929;28;20039;-76
2022/05/18 04:38:15;;;;;;;16.15;10.68;;;;;;;14.89;75.64;96940.84;5114841;28;20040;-79
2022/05/18 04:40:42;;;;;;;17.45;11.60;;;;;;;14.88;76.01;96940.06;5116172;28;20044;-80
2022/05/18 04:43:08;;;;;;;20.10;11.45;;;;;;;14.90;76.27;96941.66;5126716;28;20051;-77
2022/05/18 04:45:36;;;;;;;16.95;11.85;;;;;;;14.91;76.11;96948.75;5122942;28;20047;-76
2022/05/18 04:48:02;;;;;;;18.45;11.65;;;;;;;14.98;76.46;96951.75;5114480;28;20578;-76
2022/05/18 04:50:30;;;;;;;15.02;11.55;;;;;;;15.01;76.40;96957.38;5114767;28;20044;-80
2022/05/18 04:52:57;;;;;;;17.50;11.88;;;;;;;15.08;76.20;96962.34;5114696;28;20067;-76
2022/05/18 04:55:23;;;;;;;17.63;12.20;;;;;;;15.11;76.17;96958.94;5115048;28;20050;-79
2022/05/18 04:57:50;;;;;;;17.48;11.52;;;;;;;15.15;76.05;96959.91;5114984;28;20048;-77
2022/05/18 05:00:18;;;;;;;16.27;10.82;;;;;;;15.19;75.95;96965.50;5113776;28;20506;-79
2022/05/18 05:02:45;;;;;;;21.08;12.15;;;;;;;15.20;75.82;96967.13;5113349;28;20417;-76
2022/05/18 05:05:14;;;;;;;21.33;11.55;;;;;;;15.26;75.68;96972.06;5113769;28;20055;-77
2022/05/18 05:07:42;;;;;;;20.20;12.45;;;;;;;15.24;75.64;96976.28;5113726;28;20043;-79
2022/05/18 05:10:09;;;;;;;16.05;12.20;;;;;;;15.23;75.29;96974.69;5113389;28;20044;-77
2022/05/18 05:12:35;;;;;;;21.90;12.02;;;;;;;15.26;75.83;96972.06;5113994;28;20505;-77
2022/05/18 05:15:02;;;;;;;16.48;11.63;;;;;;;15.24;75.67;96979.81;5112966;28;20047;-77
2022/05/18 05:17:29;;;;;;;15.88;11.15;;;;;;;15.32;75.76;96969.94;5105115;28;20073;-78
2022/05/18 05:19:56;;;;;;;17.25;11.00;;;;;;;15.36;75.69;96970.88;5093185;28;20054;-77
2022/05/18 05:22:23;;;;;;;18.75;11.70;;;;;;;15.42;75.92;96979.72;5110731;28;20078;-79
2022/05/18 05:24:51;;;;;;;19.60;12.60;;;;;;;15.44;76.17;96988.41;5113090;28;20051;-76
2022/05/18 05:27:18;;;;;;;17.42;12.40;;;;;;;15.45;76.39;96990.00;5113065;28;20054;-77
2022/05/18 05:29:44;;;;;;;18.23;12.63;;;;;;;15.50;76.38;96992.56;5113403;28;20052;-77
2022/05/18 05:32:12;;;;;;;14.68;11.57;;;;;;;15.61;76.41;96994.59;5113148;28;20043;-77
2022/05/18 05:34:38;;;;;;;16.83;12.35;;;;;;;15.61;77.11;96988.31;5113614;28;20036;-77
2022/05/18 05:37:05;;;;;;;17.13;11.77;;;;;;;15.74;77.11;96987.25;5113286;28;20043;-78
2022/05/18 05:39:32;;;;;;;19.15;11.88;;;;;;;15.80;77.12;96991.38;5113953;28;20128;-78
2022/05/18 05:42:00;;;;;;;17.38;12.23;;;;;;;15.82;77.48;96989.13;5113327;28;20048;-77
2022/05/18 05:44:27;;;;;;;15.95;12.43;;;;;;;15.91;77.76;96987.09;5112505;28;20048;-77
2022/05/18 05:46:53;;;;;;;17.15;11.65;;;;;;;15.94;76.76;96985.63;5113060;27;20047;-78
2022/05/18 05:49:20;;;;;;;16.77;11.45;;;;;;;16.05;76.79;96988.75;5113674;28;20047;-77
2022/05/18 05:51:47;;;;;;;19.58;11.02;;;;;;;16.10;76.62;96986.59;5115391;28;20040;-78
2022/05/18 05:54:13;;;;;;;14.57;11.23;;;;;;;16.22;76.30;96988.56;5115420;28;20043;-76
2022/05/18 05:56:42;;;;;;;16.05;11.52;;;;;;;16.22;75.61;96980.34;5115326;28;20380;-78
2022/05/18 05:59:10;;;;;;;21.10;12.80;;;;;;;16.27;74.62;96982.06;5114783;28;20049;-77
2022/05/18 06:01:36;;;;;;;19.95;12.73;;;;;;;16.19;74.26;96983.78;5114305;28;20063;-77
2022/05/18 06:04:07;;;;;;;18.70;11.90;;;;;;;16.19;74.76;96989.28;5113578;28;20055;-77
2022/05/18 06:06:35;;;;;;;21.20;12.13;;;;;;;16.19;74.75;96986.53;5113996;28;20040;-77
2022/05/18 06:09:02;;;;;;;16.40;11.55;;;;;;;16.21;75.12;96986.97;5112477;28;20044;-77
2022/05/18 06:11:28;;;;;;;16.05;12.10;;;;;;;16.21;75.53;96989.72;5112996;28;20380;-75
2022/05/18 06:13:55;;;;;;;17.63;12.55;;;;;;;16.28;74.94;96994.66;5111655;28;20051;-75
2022/05/18 06:16:23;;;;;;;16.73;12.57;;;;;;;16.31;75.31;96989.28;5107580;28;20055;-75
2022/05/18 06:18:49;;;;;;;18.75;13.00;;;;;;;16.38;75.24;96989.53;5110983;28;20047;-75
2022/05/18 06:21:16;;;;;;;18.23;12.70;;;;;;;16.43;75.32;96992.06;5110676;28;20043;-76
2022/05/18 06:23:42;;;;;;;16.25;12.30;;;;;;;16.55;75.35;96998.72;5110774;28;20043;-76
2022/05/18 06:26:09;;;;;;;18.45;12.95;;;;;;;16.60;75.10;97009.50;5110848;28;20050;-75
2022/05/18 06:28:36;;;;;;;15.25;12.30;;;;;;;16.64;74.15;97008.47;5111352;28;20036;-77
2022/05/18 06:31:03;;;;;;;17.38;12.70;;;;;;;16.70;73.62;97007.16;5110869;28;20044;-78
2022/05/18 06:33:31;;;;;;;17.60;12.45;;;;;;;16.76;74.06;97007.75;5110174;28;20069;-77
2022/05/18 06:35:57;;;;;;;14.55;11.65;;;;;;;16.78;73.66;97010.94;5111144;28;20051;-76
2022/05/18 06:38:24;;;;;;;16.95;12.23;;;;;;;16.81;73.78;97007.53;5110831;28;20063;-76
2022/05/18 06:43:35;;;;;;;17.35;12.27;;;;;;;16.99;74.00;97015.56;5112537;28;20410;-78
2022/05/18 06:46:03;;;;;;;15.77;12.27;;;;;;;17.08;73.59;97017.06;5111737;28;20042;-77
2022/05/18 06:48:31;;;;;;;16.83;12.05;;;;;;;17.14;72.67;97023.13;5110910;28;20048;-77
2022/05/18 06:50:58;;;;;;;17.13;12.23;;;;;;;17.24;72.89;97017.16;5111560;28;20039;-77
2022/05/18 06:53:24;;;;;;;22.75;13.38;;;;;;;17.31;73.33;97020.13;5110753;28;20039;-77
2022/05/18 06:55:51;;;;;;;20.50;11.88;;;;;;;17.41;73.02;97019.66;5111056;28;20043;-78
2022/05/18 06:58:17;;;;;;;15.73;11.73;;;;;;;17.48;72.10;97003.34;5110292;28;20054;-78
2022/05/18 07:00:44;;;;;;;18.63;11.98;;;;;;;17.52;71.97;97013.69;5110755;28;20079;-77
2022/05/18 07:03:11;;;;;;;16.65;12.85;;;;;;;17.57;72.22;97018.94;5110550;28;20059;-77
2022/05/18 07:05:39;;;;;;;17.70;12.18;;;;;;;17.63;72.48;97017.56;5110712;28;20058;-77
2022/05/18 07:08:07;;;;;;;17.48;12.23;;;;;;;17.72;73.17;97018.22;5110254;28;20403;-77
2022/05/18 07:10:34;;;;;;;16.08;12.05;;;;;;;17.77;72.10;97020.78;5110817;28;20427;-76
2022/05/18 07:13:00;;;;;;;17.58;11.43;;;;;;;17.91;71.82;97015.69;5110823;28;20047;-78
2022/05/18 07:15:27;;;;;;;16.75;12.25;;;;;;;18.02;71.82;97013.25;5110411;28;20058;-78
2022/05/18 07:17:53;;;;;;;14.02;11.52;;;;;;;18.17;71.30;97023.53;5109938;27;20510;-77
2022/05/18 07:20:20;;;;;;;18.13;11.55;;;;;;;18.30;71.20;97027.00;5109675;28;20047;-77
2022/05/18 07:22:48;;;;;;;14.63;11.18;;;;;;;18.46;71.13;97018.78;5111136;28;20044;-78
2022/05/18 07:25:14;;;;;;;15.90;10.07;;;;;;;18.57;71.41;97025.38;5111060;28;20046;-78
2022/05/18 07:27:41;;;;;;;14.00;10.68;;;;;;;18.61;69.20;97029.03;5110658;28;20040;-78
2022/05/18 07:30:09;;;;;;;14.85;11.02;;;;;;;18.65;68.97;97031.91;5109814;28;20052;-77
2022/05/18 07:32:37;;;;;;;14.10;10.88;;;;;;;18.76;68.94;97022.78;5110565;28;20051;-77
2022/05/18 07:35:04;;;;;;;12.55;11.07;;;;;;;18.87;69.03;97028.56;5110253;28;20047;-78
2022/05/18 07:37:31;;;;;;;16.05;11.20;;;;;;;19.02;68.70;97025.00;5110557;28;20487;-78
2022/05/18 07:39:58;;;;;;;15.27;10.85;;;;;;;19.14;69.06;97024.09;5110829;28;20051;-77
2022/05/18 07:42:25;;;;;;;14.23;10.48;;;;;;;19.26;67.71;97025.94;5110776;28;20043;-77
2022/05/18 07:44:52;;;;;;;13.77;10.63;;;;;;;19.38;69.23;97014.81;5110477;28;20109;-78
2022/05/18 07:47:20;;;;;;;16.92;10.88;;;;;;;19.44;66.00;97010.63;5108536;28;20035;-77
2022/05/18 07:49:46;;;;;;;15.13;10.45;;;;;;;19.61;66.78;97011.41;5110749;28;20051;-78
2022/05/18 07:52:13;;;;;;;12.80;9.02;;;;;;;19.77;66.80;97009.38;5111422;28;20055;-78
2022/05/18 07:54:39;;;;;;;11.70;9.52;;;;;;;19.95;65.24;97004.25;5115154;28;20051;-77
2022/05/18 07:57:09;;;;;;;22.30;9.55;;;;;;;20.48;65.10;96999.81;5115988;28;20051;-76
2022/05/18 07:59:35;;;;;;;11.50;9.18;;;;;;;21.32;60.68;97003.63;5112576;28;20043;-77
2022/05/18 08:02:02;;;;;;;11.80;8.52;;;;;;;22.16;58.50;97007.19;5109715;28;20051;-78
2022/05/18 08:04:29;;;;;;;12.90;8.25;;;;;;;22.78;57.50;97010.25;5110318;28;20406;-77
2022/05/18 08:06:55;;;;;;;11.10;8.57;;;;;;;22.56;55.24;97015.59;5110424;28;20051;-77
2022/05/18 08:09:22;;;;;;;13.65;8.73;;;;;;;22.25;56.46;97021.56;5109397;28;20051;-78
2022/05/18 08:17:19;;;;;;;11.63;7.93;;;;;;;21.55;57.64;97023.75;5109969;28;20574;-77
2022/05/18 08:19:46;;;;;;;16.00;8.38;;;;;;;21.52;58.36;97023.72;5109864;28;20597;-77
2022/05/18 08:22:13;;;;;;;13.23;8.57;;;;;;;21.49;58.23;97021.69;5109502;28;20040;-78
2022/05/18 08:24:39;;;;;;;13.82;8.60;;;;;;;21.59;58.50;97019.06;5109982;28;20039;-78
2022/05/18 08:27:07;;;;;;;11.40;8.02;;;;;;;21.84;59.55;97022.22;5110028;28;20046;-77
2022/05/18 08:29:36;;;;;;;13.95;7.60;;;;;;;22.08;56.73;97028.44;5109888;28;20048;-78
2022/05/18 08:32:02;;;;;;;10.50;7.97;;;;;;;22.37;57.04;97024.88;5091920;28;20126;-77
2022/05/18 08:34:33;;;;;;;8.90;7.10;;;;;;;22.71;59.00;97010.16;5111135;28;20096;-77
2022/05/18 08:37:00;;;;;;;10.25;7.05;;;;;;;22.90;54.11;97023.88;5115826;28;20104;-78
2022/05/18 08:39:27;;;;;;;11.15;8.05;;;;;;;23.09;55.35;97020.88;5123937;28;20044;-77
2022/05/18 08:41:54;;;;;;;9.82;7.38;;;;;;;23.19;56.31;97016.59;5119744;28;20051;-78
2022/05/18 08:44:25;;;;;;;9.02;6.95;;;;;;;23.33;53.52;97024.22;5118929;28;20042;-78
2022/05/18 08:47:17;;;;;;;12.30;7.20;;;;;;;23.46;54.57;97019.19;5117549;28;20040;-78
2022/05/18 08:49:53;;;;;;;9.43;7.40;;;;;;;23.58;52.71;97018.84;5115847;28;20402;-78
2022/05/18 08:52:30;;;;;;;13.82;6.78;;;;;;;23.80;52.73;97022.59;5116633;28;20497;-78
2022/05/18 08:55:19;;;;;;;11.70;7.00;;;;;;;23.94;52.29;97020.69;5102636;28;20047;-78
2022/05/18 08:57:49;;;;;;;10.90;6.80;;;;;;;24.15;51.92;97022.00;5115052;28;20043;-76
2022/05/18 09:00:19;;;;;;;7.65;6.85;;;;;;;24.27;52.14;97020.84;5113901;28;20498;-77
2022/05/18 09:02:56;;;;;;;9.68;7.03;;;;;;;24.34;50.17;97012.53;5114935;28;20126;-76
2022/05/18 09:05:31;;;;;;;9.70;6.18;;;;;;;24.47;52.05;97013.78;5117752;28;20040;-78
2022/05/18 09:08:04;;;;;;;11.02;6.53;;;;;;;24.52;49.75;97020.97;5117486;28;20044;-79
2022/05/18 09:10:36;;;;;;;11.45;6.05;;;;;;;24.63;48.57;97013.44;5116183;28;20051;-78
2022/05/18 09:13:03;;;;;;;11.82;7.35;;;;;;;24.70;48.56;97011.47;5115721;28;20539;-78
2022/05/18 09:15:36;;;;;;;8.35;6.95;;;;;;;24.88;53.80;97016.28;5115751;28;20116;-78
2022/05/18 09:18:13;;;;;;;9.02;6.68;;;;;;;24.69;48.66;97011.84;5116058;28;20094;-77
2022/05/18 09:20:45;;;;;;;9.40;7.18;;;;;;;24.69;48.98;97011.84;5113825;28;20058;-77
2022/05/18 09:23:40;;;;;;;10.45;6.03;;;;;;;24.70;46.46;97011.47;5141687;22;20049;-81
2022/05/18 09:26:22;;;;;;;11.75;7.55;;;;;;;24.72;52.84;97017.44;5117174;28;20048;-82
2022/05/18 09:28:53;;;;;;;20.30;7.43;;;;;;;24.83;47.94;97008.31;5119713;28;20044;-81
2022/05/18 09:31:43;;;;;;;8.93;6.57;;;;;;;24.96;49.46;97007.53;5117880;28;20516;-81
2022/05/18 09:34:24;;;;;;;7.20;5.57;;;;;;;25.03;48.34;97003.97;5117611;28;20379;-83
2022/05/18 09:37:09;;;;;;;6.75;5.50;;;;;;;25.10;47.39;97008.75;5119547;28;20047;-81
2022/05/18 09:39:41;;;;;;;10.20;7.22;;;;;;;25.25;46.83;97011.16;5119630;28;20036;-80
2022/05/18 09:42:14;;;;;;;11.13;5.70;;;;;;;25.27;47.56;97015.53;5119437;28;20044;-81
2022/05/18 09:44:49;;;;;;;10.70;7.25;;;;;;;25.35;48.00;97019.91;5100864;28;20099;-83
2022/05/18 09:47:19;;;;;;;9.75;5.90;;;;;;;25.35;48.35;97019.91;5114848;28;20054;-82
2022/05/18 09:49:51;;;;;;;11.10;6.80;;;;;;;25.51;50.52;97025.88;5119553;28;20079;-80
2022/05/18 09:52:20;;;;;;;8.23;7.32;;;;;;;25.43;44.84;97013.16;5119438;28;20044;-82
2022/05/18 09:54:47;;;;;;;9.57;6.57;;;;;;;25.40;46.27;97025.09;5120538;28;20051;-82
2022/05/18 09:57:19;;;;;;;9.30;6.55;;;;;;;25.50;49.35;97010.34;5102664;28;20040;-82
2022/05/18 09:59:52;;;;;;;8.68;5.60;;;;;;;25.47;42.78;97016.72;5108746;28;20055;-81
2022/05/18 10:07:57;;;;;;;6.60;5.03;;;;;;;25.69;45.81;97015.50;5117406;28;20127;-81
2022/05/18 10:10:29;;;;;;;5.90;5.30;;;;;;;25.80;45.95;97014.72;5103411;28;20469;-83
2022/05/18 10:13:02;;;;;;;;;;;;;;;25.88;44.75;97013.50;5120714;28;20051;-80
2022/05/18 10:15:35;;;;;;;7.10;4.27;;;;;;;25.79;45.19;97010.31;5118578;28;19947;-82
2022/05/18 10:18:16;;;;;;;7.40;4.28;;;;;;;25.81;45.07;97016.31;5116326;28;20269;-82
2022/05/18 10:21:01;;;;;;;10.50;4.90;;;;;;;25.82;45.85;97012.31;5100313;28;20055;-81
2022/05/18 10:23:35;;;;;;;7.65;3.95;;;;;;;25.88;47.16;97010.69;5098731;28;20601;-83
2022/05/18 10:26:03;;;;;;;8.02;3.92;;;;;;;25.88;45.33;97017.06;5098286;28;20132;-79
2022/05/18 10:28:40;;;;;;;6.80;4.28;;;;;;;25.93;44.91;97007.50;5099234;28;20044;-84
2022/05/18 10:31:08;;;;;;;6.80;3.60;;;;;;;25.93;42.39;97013.06;5099959;28;20107;-80
2022/05/18 10:33:37;;;;;;;4.78;3.55;;;;;;;25.94;42.34;97009.06;5100471;28;20043;-80
2022/05/18 10:36:13;;;;;;;8.18;3.75;;;;;;;25.96;42.71;97006.69;5092972;28;20055;-79
2022/05/18 10:38:49;;;;;;;6.25;3.03;;;;;;;26.02;40.83;96999.50;5091694;28;20059;-78
2022/05/18 10:41:20;;;;;;;6.47;3.33;;;;;;;26.07;40.93;97006.66;5089277;28;20052;-78
2022/05/18 10:44:00;;;;;;;5.03;2.90;;;;;;;26.12;40.67;97001.47;5092045;28;20093;-79
2022/05/18 10:46:30;;;;;;;5.72;3.30;;;;;;;26.17;41.78;96997.47;5091658;28;20047;-80
2022/05/18 10:49:00;;;;;;;5.18;3.35;;;;;;;26.24;41.26;97006.59;5091678;28;20498;-78
2022/05/18 10:51:33;;;;;;;4.55;2.97;;;;;;;26.27;43.01;96994.63;5091538;28;20051;-78
2022/05/18 10:54:08;;;;;;;;;;;;;;;26.21;40.14;97001.03;5092299;28;20075;-78
2022/05/18 10:56:34;;;;;;;4.30;2.53;;;;;;;26.13;39.61;97003.03;5091620;28;20328;-79
2022/05/18 10:59:19;;;;;;;6.47;2.30;;;;;;;26.04;40.55;97002.66;5091358;28;20044;-80
2022/05/18 11:01:54;;;;;;;6.82;3.28;;;;;;;26.06;43.13;96994.72;5091456;28;20036;-81
2022/05/18 11:04:27;;;;;;;5.47;2.92;;;;;;;26.16;41.03;96991.09;5091305;28;20048;-79
2022/05/18 11:06:55;;;;;;;4.80;2.83;;;;;;;26.18;41.40;96990.66;5091475;28;20052;-80
2022/05/18 11:09:26;;;;;;;6.38;3.00;;;;;;;26.23;42.49;96993.84;5090941;28;20058;-78
2022/05/18 11:11:58;;;;;;;5.72;2.83;;;;;;;26.23;41.39;96987.47;5091581;28;20083;-78
2022/05/18 11:14:35;;;;;;;6.13;2.70;;;;;;;26.19;40.94;96989.47;5091179;28;20529;-78
2022/05/18 11:17:11;;;;;;;5.47;3.05;;;;;;;26.21;42.23;96996.25;5090391;28;20502;-76
2022/05/18 11:19:45;;;;;;;9.10;3.40;;;;;;;26.19;40.73;96993.03;5091311;28;20616;-78
2022/05/18 11:22:24;;;;;;;10.07;3.60;;;;;;;26.20;41.95;96991.03;5091015;28;20044;-78
2022/05/18 11:25:10;;;;;;;4.45;3.15;;;;;;;26.16;42.88;96977.13;5091115;28;20048;-78
2022/05/18 11:27:45;;;;;;;5.97;3.35;;;;;;;26.15;41.73;96978.31;5091112;28;20498;-78
2022/05/18 11:30:18;;;;;;;6.25;3.42;;;;;;;26.22;41.22;96980.28;5090223;28;20047;-80
2022/05/18 11:32:58;;;;;;;5.95;3.03;;;;;;;26.23;42.07;96977.09;5091318;28;20058;-78
2022/05/18 11:35:47;;;;;;;5.20;3.00;;;;;;;26.28;42.17;96979.44;5090783;28;20502;-77
2022/05/18 11:38:46;;;;;;;7.65;3.20;;;;;;;26.25;42.43;96980.25;5090539;28;20052;-78
2022/05/18 11:41:30;;;;;;;5.32;2.70;;;;;;;26.11;39.72;96977.53;5073417;28;20075;-79
2022/05/18 11:44:02;;;;;;;4.53;2.88;;;;;;;25.95;40.00;96971.63;5091110;28;20052;-79
2022/05/18 11:46:46;;;;;;;3.60;2.47;;;;;;;26.00;41.00;96962.84;5090330;28;20475;-79
2022/05/18 11:49:19;;;;;;;6.00;3.40;;;;;;;25.99;43.54;96966.81;5090686;28;20067;-78
2022/05/18 11:52:00;;;;;;;5.22;2.70;;;;;;;26.03;41.41;96962.00;5091047;28;20139;-79
2022/05/18 11:54:41;;;;;;;4.25;2.80;;;;;;;26.03;41.78;96962.00;5090802;28;20047;-77